sensor_id;sensor_type;location;lat;lon;timestamp;pressure;altitude;pressure_sealevel;temperature;humidity
36062;BME280;22123;52.412;20.970;2023-11-19T00:02:17;101405.25;;;-0.25;100.00
36062;BME280;22123;52.412;20.970;2023-11-19T00:04:43;101360.19;;;-0.41;100.00
36062;BME280;22123;52.412;20.970;2023-11-19T00:07:09;101352.50;;;-0.46;100.00
36062;BME280;22123;52.412;20.970;2023-11-19T00:09:35;101367.13;;;-0.39;100.00
36062;BME280;22123;52.412;20.970;2023-11-19T00:12:01;101361.75;;;-0.37;100.00
36062;BME280;22123;52.412;20.970;2023-11-19T00:14:27;101364.66;;;-0.42;100.00
36062;BME280;22123;52.412;20.970;2023-11-19T00:16:53;101367.28;;;-0.42;100.00
36062;BME280;22123;52.412;20.970;2023-11-19T00:19:18;101375.75;;;-0.35;100.00
36062;BME280;22123;52.412;20.970;2023-11-19T00:21:44;101373.81;;;-0.31;100.00
36062;BME280;22123;52.412;20.970;2023-11-19T00:24:10;101346.91;;;-0.40;100.00
36062;BME280;22123;52.412;20.970;2023-11-19T00:26:36;101364.09;;;-0.31;100.00
36062;BME280;22123;52.412;20.970;2023-11-19T00:29:02;101338.03;;;-0.39;100.00
36062;BME280;22123;52.412;20.970;2023-11-19T00:31:28;101361.59;;;-0.34;100.00
36062;BME280;22123;52.412;20.970;2023-11-19T00:33:54;101340.03;;;-0.44;100.00
36062;BME280;22123;52.412;20.970;2023-11-19T00:36:20;101332.81;;;-0.40;100.00
36062;BME280;22123;52.412;20.970;2023-11-19T00:38:46;101333.97;;;-0.28;100.00
36062;BME280;22123;52.412;20.970;2023-11-19T00:41:12;101278.91;;;-0.55;100.00
36062;BME280;22123;52.412;20.970;2023-11-19T00:43:37;101318.94;;;-0.28;100.00
36062;BME280;22123;52.412;20.970;2023-11-19T00:46:03;101299.09;;;-0.37;100.00
36062;BME280;22123;52.412;20.970;2023-11-19T00:48:32;101304.22;;;-0.33;100.00
36062;BME280;22123;52.412;20.970;2023-11-19T00:50:58;101313.63;;;-0.28;100.00
36062;BME280;22123;52.412;20.970;2023-11-19T00:53:24;101348.78;;;-0.08;100.00
36062;BME280;22123;52.412;20.970;2023-11-19T00:55:50;101306.19;;;-0.37;100.00
36062;BME280;22123;52.412;20.970;2023-11-19T00:58:16;101317.06;;;-0.26;100.00
36062;BME280;22123;52.412;20.970;2023-11-19T01:00:41;101294.69;;;-0.36;100.00
36062;BME280;22123;52.412;20.970;2023-11-19T01:03:07;101287.59;;;-0.36;100.00
36062;BME280;22123;52.412;20.970;2023-11-19T01:05:33;101270.16;;;-0.40;100.00
36062;BME280;22123;52.412;20.970;2023-11-19T01:07:59;101258.75;;;-0.40;100.00
36062;BME280;22123;52.412;20.970;2023-11-19T01:10:25;101270.63;;;-0.31;100.00
36062;BME280;22123;52.412;20.970;2023-11-19T01:12:51;101275.75;;;-0.28;100.00
36062;BME280;22123;52.412;20.970;2023-11-19T01:15:17;101263.03;;;-0.38;100.00
36062;BME280;22123;52.412;20.970;2023-11-19T01:17:43;101292.75;;;-0.16;100.00
36062;BME280;22123;52.412;20.970;2023-11-19T01:20:10;101263.53;;;-0.31;100.00
36062;BME280;22123;52.412;20.970;2023-11-19T01:22:36;101257.38;;;-0.31;100.00
36062;BME280;22123;52.412;20.970;2023-11-19T01:25:02;101253.03;;;-0.32;100.00
36062;BME280;22123;52.412;20.970;2023-11-19T01:27:28;101254.22;;;-0.22;100.00
36062;BME280;22123;52.412;20.970;2023-11-19T01:29:54;101278.41;;;-0.12;100.00
36062;BME280;22123;52.412;20.970;2023-11-19T01:32:20;101283.88;;;-0.15;100.00
36062;BME280;22123;52.412;20.970;2023-11-19T01:34:46;101272.75;;;-0.22;100.00
36062;BME280;22123;52.412;20.970;2023-11-19T01:37:12;101274.47;;;-0.21;100.00
36062;BME280;22123;52.412;20.970;2023-11-19T01:39:38;101266.53;;;-0.21;100.00
36062;BME280;22123;52.412;20.970;2023-11-19T01:42:04;101278.75;;;-0.19;100.00
36062;BME280;22123;52.412;20.970;2023-11-19T01:44:30;101247.81;;;-0.34;100.00
36062;BME280;22123;52.412;20.970;2023-11-19T01:46:56;101168.28;;;-0.80;100.00
36062;BME280;22123;52.412;20.970;2023-11-19T01:49:21;101242.53;;;-0.34;100.00
36062;BME280;22123;52.412;20.970;2023-11-19T01:51:47;101248.34;;;-0.27;100.00
36062;BME280;22123;52.412;20.970;2023-11-19T01:54:14;101202.81;;;-0.50;100.00
36062;BME280;22123;52.412;20.970;2023-11-19T01:56:40;101221.19;;;-0.31;100.00
36062;BME280;22123;52.412;20.970;2023-11-19T01:59:07;101216.78;;;-0.30;100.00
36062;BME280;22123;52.412;20.970;2023-11-19T02:01:34;101209.75;;;-0.31;100.00
36062;BME280;22123;52.412;20.970;2023-11-19T02:04:01;101221.53;;;-0.21;100.00
36062;BME280;22123;52.412;20.970;2023-11-19T02:06:27;101231.69;;;-0.13;100.00
36062;BME280;22123;52.412;20.970;2023-11-19T02:08:53;101189.16;;;-0.42;100.00
36062;BME280;22123;52.412;20.970;2023-11-19T02:11:19;101195.91;;;-0.37;100.00
36062;BME280;22123;52.412;20.970;2023-11-19T02:13:45;101217.44;;;-0.27;100.00
36062;BME280;22123;52.412;20.970;2023-11-19T02:16:11;101187.47;;;-0.43;100.00
36062;BME280;22123;52.412;20.970;2023-11-19T02:18:37;101204.72;;;-0.36;100.00
36062;BME280;22123;52.412;20.970;2023-11-19T02:21:03;101202.94;;;-0.36;100.00
36062;BME280;22123;52.412;20.970;2023-11-19T02:23:30;101205.22;;;-0.29;100.00
36062;BME280;22123;52.412;20.970;2023-11-19T02:25:59;101227.38;;;-0.14;100.00
36062;BME280;22123;52.412;20.970;2023-11-19T02:28:26;101225.56;;;-0.14;100.00
36062;BME280;22123;52.412;20.970;2023-11-19T02:30:51;101208.84;;;-0.30;100.00
36062;BME280;22123;52.412;20.970;2023-11-19T02:33:17;101193.97;;;-0.33;100.00
36062;BME280;22123;52.412;20.970;2023-11-19T02:35:43;101179.09;;;-0.36;100.00
36062;BME280;22123;52.412;20.970;2023-11-19T02:38:09;101144.97;;;-0.56;100.00
36062;BME280;22123;52.412;20.970;2023-11-19T02:40:35;101203.47;;;-0.13;100.00
36062;BME280;22123;52.412;20.970;2023-11-19T02:43:01;101153.94;;;-0.43;100.00
36062;BME280;22123;52.412;20.970;2023-11-19T02:45:27;101171.34;;;-0.39;100.00
36062;BME280;22123;52.412;20.970;2023-11-19T02:47:53;101178.84;;;-0.31;100.00
36062;BME280;22123;52.412;20.970;2023-11-19T02:50:20;101164.34;;;-0.40;100.00
36062;BME280;22123;52.412;20.970;2023-11-19T02:52:46;101176.13;;;-0.29;100.00
36062;BME280;22123;52.412;20.970;2023-11-19T02:55:12;101143.53;;;-0.46;100.00
36062;BME280;22123;52.412;20.970;2023-11-19T02:57:38;101174.66;;;-0.19;100.00
36062;BME280;22123;52.412;20.970;2023-11-19T03:00:05;101180.75;;;-0.17;100.00
36062;BME280;22123;52.412;20.970;2023-11-19T03:02:31;101143.78;;;-0.34;100.00
36062;BME280;22123;52.412;20.970;2023-11-19T03:04:57;101143.53;;;-0.30;100.00
36062;BME280;22123;52.412;20.970;2023-11-19T03:07:23;101154.44;;;-0.20;100.00
36062;BME280;22123;52.412;20.970;2023-11-19T03:09:49;101148.38;;;-0.22;100.00
36062;BME280;22123;52.412;20.970;2023-11-19T03:12:14;101124.38;;;-0.35;100.00
36062;BME280;22123;52.412;20.970;2023-11-19T03:14:40;101120.72;;;-0.32;100.00
36062;BME280;22123;52.412;20.970;2023-11-19T03:17:06;101136.16;;;-0.25;100.00
36062;BME280;22123;52.412;20.970;2023-11-19T03:19:32;101096.91;;;-0.48;100.00
36062;BME280;22123;52.412;20.970;2023-11-19T03:21:58;101111.06;;;-0.33;100.00
36062;BME280;22123;52.412;20.970;2023-11-19T03:24:24;101098.97;;;-0.38;100.00
36062;BME280;22123;52.412;20.970;2023-11-19T03:26:50;101132.94;;;-0.14;100.00
36062;BME280;22123;52.412;20.970;2023-11-19T03:29:16;101063.31;;;-0.46;100.00
36062;BME280;22123;52.412;20.970;2023-11-19T03:31:42;101097.44;;;-0.26;100.00
36062;BME280;22123;52.412;20.970;2023-11-19T03:34:08;101073.63;;;-0.42;100.00
36062;BME280;22123;52.412;20.970;2023-11-19T03:36:34;101079.50;;;-0.37;100.00
36062;BME280;22123;52.412;20.970;2023-11-19T03:39:00;101113.72;;;-0.18;100.00
36062;BME280;22123;52.412;20.970;2023-11-19T03:41:26;101073.44;;;-0.39;100.00
36062;BME280;22123;52.412;20.970;2023-11-19T03:43:53;101087.25;;;-0.33;100.00
36062;BME280;22123;52.412;20.970;2023-11-19T03:46:20;101059.97;;;-0.50;100.00
36062;BME280;22123;52.412;20.970;2023-11-19T03:48:47;101120.53;;;-0.13;100.00
36062;BME280;22123;52.412;20.970;2023-11-19T03:51:13;101101.84;;;-0.26;100.00
36062;BME280;22123;52.412;20.970;2023-11-19T03:53:39;101097.59;;;-0.29;100.00
36062;BME280;22123;52.412;20.970;2023-11-19T03:56:05;101117.97;;;-0.15;100.00
36062;BME280;22123;52.412;20.970;2023-11-19T03:58:31;101057.94;;;-0.45;100.00
36062;BME280;22123;52.412;20.970;2023-11-19T04:00:57;101060.31;;;-0.40;100.00
36062;BME280;22123;52.412;20.970;2023-11-19T04:03:23;101041.63;;;-0.37;100.00
36062;BME280;22123;52.412;20.970;2023-11-19T04:05:49;101026.34;;;-0.48;100.00
36062;BME280;22123;52.412;20.970;2023-11-19T04:08:15;101062.75;;;-0.21;100.00
36062;BME280;22123;52.412;20.970;2023-11-19T04:10:41;101023.38;;;-0.42;100.00
36062;BME280;22123;52.412;20.970;2023-11-19T04:13:07;101030.00;;;-0.34;100.00
36062;BME280;22123;52.412;20.970;2023-11-19T04:15:32;100980.09;;;-0.57;100.00
36062;BME280;22123;52.412;20.970;2023-11-19T04:17:58;101015.06;;;-0.36;100.00
36062;BME280;22123;52.412;20.970;2023-11-19T04:20:24;101052.50;;;-0.11;100.00
36062;BME280;22123;52.412;20.970;2023-11-19T04:22:50;101034.41;;;-0.19;100.00
36062;BME280;22123;52.412;20.970;2023-11-19T04:25:16;101018.03;;;-0.26;100.00
36062;BME280;22123;52.412;20.970;2023-11-19T04:27:42;100999.19;;;-0.36;100.00
36062;BME280;22123;52.412;20.970;2023-11-19T04:30:08;100992.19;;;-0.37;100.00
36062;BME280;22123;52.412;20.970;2023-11-19T04:32:34;101001.38;;;-0.28;100.00
36062;BME280;22123;52.412;20.970;2023-11-19T04:35:00;101008.13;;;-0.22;100.00
36062;BME280;22123;52.412;20.970;2023-11-19T04:37:26;100985.69;;;-0.31;100.00
36062;BME280;22123;52.412;20.970;2023-11-19T04:39:52;100989.78;;;-0.25;100.00
36062;BME280;22123;52.412;20.970;2023-11-19T04:42:17;100976.31;;;-0.37;100.00
36062;BME280;22123;52.412;20.970;2023-11-19T04:44:43;100985.31;;;-0.25;100.00
36062;BME280;22123;52.412;20.970;2023-11-19T04:47:09;100997.34;;;-0.19;100.00
36062;BME280;22123;52.412;20.970;2023-11-19T04:49:35;100972.56;;;-0.32;100.00
36062;BME280;22123;52.412;20.970;2023-11-19T04:52:01;100998.69;;;-0.12;100.00
36062;BME280;22123;52.412;20.970;2023-11-19T04:54:27;100970.09;;;-0.36;100.00
36062;BME280;22123;52.412;20.970;2023-11-19T04:56:53;100966.50;;;-0.34;100.00
36062;BME280;22123;52.412;20.970;2023-11-19T04:59:18;100961.31;;;-0.36;100.00
36062;BME280;22123;52.412;20.970;2023-11-19T05:01:47;100991.03;;;-0.16;100.00
36062;BME280;22123;52.412;20.970;2023-11-19T05:04:14;100954.50;;;-0.40;100.00
36062;BME280;22123;52.412;20.970;2023-11-19T05:06:40;100953.38;;;-0.36;100.00
36062;BME280;22123;52.412;20.970;2023-11-19T05:09:06;100971.06;;;-0.22;100.00
36062;BME280;22123;52.412;20.970;2023-11-19T05:11:32;100969.38;;;-0.23;100.00
36062;BME280;22123;52.412;20.970;2023-11-19T05:13:58;100945.06;;;-0.30;100.00
36062;BME280;22123;52.412;20.970;2023-11-19T05:16:24;100949.25;;;-0.26;100.00
36062;BME280;22123;52.412;20.970;2023-11-19T05:18:49;100935.13;;;-0.26;100.00
36062;BME280;22123;52.412;20.970;2023-11-19T05:21:15;100947.06;;;-0.19;100.00
36062;BME280;22123;52.412;20.970;2023-11-19T05:23:41;100964.88;;;-0.07;100.00
36062;BME280;22123;52.412;20.970;2023-11-19T05:26:07;100944.50;;;-0.21;100.00
36062;BME280;22123;52.412;20.970;2023-11-19T05:28:33;100925.16;;;-0.21;100.00
36062;BME280;22123;52.412;20.970;2023-11-19T05:30:59;100952.38;;;-0.05;100.00
36062;BME280;22123;52.412;20.970;2023-11-19T05:33:25;100888.44;;;-0.42;100.00
36062;BME280;22123;52.412;20.970;2023-11-19T05:35:51;100937.25;;;-0.17;100.00
36062;BME280;22123;52.412;20.970;2023-11-19T05:38:17;100937.16;;;-0.15;100.00
36062;BME280;22123;52.412;20.970;2023-11-19T05:40:43;100936.88;;;-0.11;100.00
36062;BME280;22123;52.412;20.970;2023-11-19T05:43:09;100921.56;;;-0.20;100.00
36062;BME280;22123;52.412;20.970;2023-11-19T05:45:34;100912.84;;;-0.22;100.00
36062;BME280;22123;52.412;20.970;2023-11-19T05:48:00;100904.34;;;-0.27;100.00
36062;BME280;22123;52.412;20.970;2023-11-19T05:50:26;100888.66;;;-0.30;100.00
36062;BME280;22123;52.412;20.970;2023-11-19T05:52:52;100940.69;;;-0.01;100.00
36062;BME280;22123;52.412;20.970;2023-11-19T05:55:18;100885.94;;;-0.29;100.00
36062;BME280;22123;52.412;20.970;2023-11-19T05:57:44;100902.06;;;-0.19;100.00
36062;BME280;22123;52.412;20.970;2023-11-19T06:00:10;100894.22;;;-0.21;100.00
36062;BME280;22123;52.412;20.970;2023-11-19T06:02:36;100911.16;;;-0.09;100.00
36062;BME280;22123;52.412;20.970;2023-11-19T06:05:02;100919.28;;;-0.12;100.00
36062;BME280;22123;52.412;20.970;2023-11-19T06:07:28;100903.13;;;-0.22;100.00
36062;BME280;22123;52.412;20.970;2023-11-19T06:09:54;100914.19;;;-0.15;100.00
36062;BME280;22123;52.412;20.970;2023-11-19T06:12:20;100927.63;;;-0.04;100.00
36062;BME280;22123;52.412;20.970;2023-11-19T06:14:46;100935.19;;;0.03;100.00
36062;BME280;22123;52.412;20.970;2023-11-19T06:17:11;100886.38;;;-0.22;100.00
36062;BME280;22123;52.412;20.970;2023-11-19T06:19:37;100882.13;;;-0.25;100.00
36062;BME280;22123;52.412;20.970;2023-11-19T06:22:03;100893.38;;;-0.21;100.00
36062;BME280;22123;52.412;20.970;2023-11-19T06:24:29;100898.22;;;-0.13;100.00
36062;BME280;22123;52.412;20.970;2023-11-19T06:26:55;100865.69;;;-0.30;100.00
36062;BME280;22123;52.412;20.970;2023-11-19T06:29:21;100875.91;;;-0.24;100.00
36062;BME280;22123;52.412;20.970;2023-11-19T06:31:47;100904.94;;;-0.08;100.00
36062;BME280;22123;52.412;20.970;2023-11-19T06:34:13;100839.31;;;-0.46;100.00
36062;BME280;22123;52.412;20.970;2023-11-19T06:36:39;100879.41;;;-0.23;100.00
36062;BME280;22123;52.412;20.970;2023-11-19T06:39:05;100870.72;;;-0.11;100.00
36062;BME280;22123;52.412;20.970;2023-11-19T06:41:31;100899.94;;;0.02;100.00
36062;BME280;22123;52.412;20.970;2023-11-19T06:43:57;100891.81;;;0.05;100.00
36062;BME280;22123;52.412;20.970;2023-11-19T06:46:23;100857.66;;;-0.14;100.00
36062;BME280;22123;52.412;20.970;2023-11-19T06:48:49;100835.81;;;-0.18;100.00
36062;BME280;22123;52.412;20.970;2023-11-19T06:51:15;100812.38;;;-0.24;100.00
36062;BME280;22123;52.412;20.970;2023-11-19T06:53:42;100839.06;;;-0.12;100.00
36062;BME280;22123;52.412;20.970;2023-11-19T06:56:21;100855.03;;;0.01;100.00
36062;BME280;22123;52.412;20.970;2023-11-19T06:58:47;100850.28;;;-0.09;100.00
36062;BME280;22123;52.412;20.970;2023-11-19T07:01:13;100815.72;;;-0.20;100.00
36062;BME280;22123;52.412;20.970;2023-11-19T07:03:39;100820.44;;;-0.11;100.00
36062;BME280;22123;52.412;20.970;2023-11-19T07:06:05;100802.47;;;-0.20;100.00
36062;BME280;22123;52.412;20.970;2023-11-19T07:08:31;100812.50;;;-0.11;100.00
36062;BME280;22123;52.412;20.970;2023-11-19T07:10:57;100818.81;;;0.01;100.00
36062;BME280;22123;52.412;20.970;2023-11-19T07:13:23;100822.34;;;0.02;100.00
36062;BME280;22123;52.412;20.970;2023-11-19T07:15:48;100816.38;;;-0.02;100.00
36062;BME280;22123;52.412;20.970;2023-11-19T07:18:14;100815.13;;;0.04;100.00
36062;BME280;22123;52.412;20.970;2023-11-19T07:20:40;100799.72;;;-0.04;100.00
36062;BME280;22123;52.412;20.970;2023-11-19T07:23:06;100810.78;;;0.03;100.00
36062;BME280;22123;52.412;20.970;2023-11-19T07:25:32;100808.31;;;-0.01;100.00
36062;BME280;22123;52.412;20.970;2023-11-19T07:27:58;100813.13;;;0.07;100.00
36062;BME280;22123;52.412;20.970;2023-11-19T07:30:24;100837.41;;;0.28;100.00
36062;BME280;22123;52.412;20.970;2023-11-19T07:32:50;100811.53;;;0.19;100.00
36062;BME280;22123;52.412;20.970;2023-11-19T07:35:16;100812.44;;;0.32;100.00
36062;BME280;22123;52.412;20.970;2023-11-19T07:37:42;100800.84;;;0.21;100.00
36062;BME280;22123;52.412;20.970;2023-11-19T07:40:08;100759.53;;;0.04;100.00
36062;BME280;22123;52.412;20.970;2023-11-19T07:42:34;100771.13;;;0.15;100.00
36062;BME280;22123;52.412;20.970;2023-11-19T07:45:00;100770.56;;;0.25;100.00
36062;BME280;22123;52.412;20.970;2023-11-19T07:47:26;100776.41;;;0.30;100.00
36062;BME280;22123;52.412;20.970;2023-11-19T07:49:52;100764.50;;;0.23;100.00
36062;BME280;22123;52.412;20.970;2023-11-19T07:52:18;100772.06;;;0.29;100.00
36062;BME280;22123;52.412;20.970;2023-11-19T07:54:44;100754.22;;;0.18;100.00
36062;BME280;22123;52.412;20.970;2023-11-19T07:57:10;100782.19;;;0.37;100.00
36062;BME280;22123;52.412;20.970;2023-11-19T07:59:36;100758.16;;;0.25;100.00
36062;BME280;22123;52.412;20.970;2023-11-19T08:02:02;100761.03;;;0.22;100.00
36062;BME280;22123;52.412;20.970;2023-11-19T08:04:28;100744.88;;;0.12;100.00
36062;BME280;22123;52.412;20.970;2023-11-19T08:06:53;100776.41;;;0.30;100.00
36062;BME280;22123;52.412;20.970;2023-11-19T08:09:19;100781.06;;;0.26;100.00
36062;BME280;22123;52.412;20.970;2023-11-19T08:11:45;100786.06;;;0.31;100.00
36062;BME280;22123;52.412;20.970;2023-11-19T08:14:11;100755.66;;;0.09;100.00
36062;BME280;22123;52.412;20.970;2023-11-19T08:16:39;100780.97;;;0.28;100.00
36062;BME280;22123;52.412;20.970;2023-11-19T08:19:05;100751.97;;;0.12;100.00
36062;BME280;22123;52.412;20.970;2023-11-19T08:21:31;100760.34;;;0.19;100.00
36062;BME280;22123;52.412;20.970;2023-11-19T08:23:56;100724.00;;;-0.07;100.00
36062;BME280;22123;52.412;20.970;2023-11-19T08:26:22;100739.13;;;-0.09;100.00
36062;BME280;22123;52.412;20.970;2023-11-19T08:28:48;100698.06;;;-0.43;100.00
36062;BME280;22123;52.412;20.970;2023-11-19T08:31:14;100743.50;;;-0.22;100.00
36062;BME280;22123;52.412;20.970;2023-11-19T08:33:40;100732.38;;;-0.27;100.00
36062;BME280;22123;52.412;20.970;2023-11-19T08:36:06;100755.19;;;-0.12;100.00
36062;BME280;22123;52.412;20.970;2023-11-19T08:38:32;100718.84;;;-0.37;100.00
36062;BME280;22123;52.412;20.970;2023-11-19T08:40:58;100714.41;;;-0.37;100.00
36062;BME280;22123;52.412;20.970;2023-11-19T08:43:24;100736.56;;;-0.10;100.00
36062;BME280;22123;52.412;20.970;2023-11-19T08:45:50;100738.97;;;-0.06;100.00
36062;BME280;22123;52.412;20.970;2023-11-19T08:48:16;100754.03;;;0.07;100.00
36062;BME280;22123;52.412;20.970;2023-11-19T08:50:42;100764.06;;;0.16;100.00
36062;BME280;22123;52.412;20.970;2023-11-19T08:53:08;100749.31;;;0.12;100.00
36062;BME280;22123;52.412;20.970;2023-11-19T08:55:33;100742.00;;;0.15;100.00
36062;BME280;22123;52.412;20.970;2023-11-19T08:57:59;100719.72;;;0.05;100.00
36062;BME280;22123;52.412;20.970;2023-11-19T09:00:26;100733.13;;;0.16;100.00
36062;BME280;22123;52.412;20.970;2023-11-19T09:02:51;100727.44;;;0.23;100.00
36062;BME280;22123;52.412;20.970;2023-11-19T09:05:17;100693.22;;;0.20;100.00
36062;BME280;22123;52.412;20.970;2023-11-19T09:07:43;100681.13;;;0.15;100.00
36062;BME280;22123;52.412;20.970;2023-11-19T09:10:09;100679.56;;;0.26;100.00
36062;BME280;22123;52.412;20.970;2023-11-19T09:12:35;100688.44;;;0.39;100.00
36062;BME280;22123;52.412;20.970;2023-11-19T09:15:01;100652.97;;;0.27;100.00
36062;BME280;22123;52.412;20.970;2023-11-19T09:17:27;100660.13;;;0.40;100.00
36062;BME280;22123;52.412;20.970;2023-11-19T09:19:53;100686.97;;;0.61;100.00
36062;BME280;22123;52.412;20.970;2023-11-19T09:22:19;100685.81;;;0.65;100.00
36062;BME280;22123;52.412;20.970;2023-11-19T09:24:44;100657.50;;;0.52;100.00
36062;BME280;22123;52.412;20.970;2023-11-19T09:27:10;100649.00;;;0.47;100.00
36062;BME280;22123;52.412;20.970;2023-11-19T09:29:36;100669.28;;;0.61;100.00
36062;BME280;22123;52.412;20.970;2023-11-19T09:32:02;100672.78;;;0.62;100.00
36062;BME280;22123;52.412;20.970;2023-11-19T09:34:28;100672.69;;;0.63;100.00
36062;BME280;22123;52.412;20.970;2023-11-19T09:36:54;100680.97;;;0.72;100.00
36062;BME280;22123;52.412;20.970;2023-11-19T09:39:20;100634.00;;;0.48;100.00
36062;BME280;22123;52.412;20.970;2023-11-19T09:41:46;100666.13;;;0.69;100.00
36062;BME280;22123;52.412;20.970;2023-11-19T09:44:12;100634.09;;;0.59;100.00
36062;BME280;22123;52.412;20.970;2023-11-19T09:46:38;100644.09;;;0.68;100.00
36062;BME280;22123;52.412;20.970;2023-11-19T09:49:08;100671.56;;;0.93;100.00
36062;BME280;22123;52.412;20.970;2023-11-19T09:51:37;100622.78;;;0.70;100.00
36062;BME280;22123;52.412;20.970;2023-11-19T09:54:03;100625.66;;;0.80;100.00
36062;BME280;22123;52.412;20.970;2023-11-19T09:56:29;100637.63;;;0.98;100.00
36062;BME280;22123;52.412;20.970;2023-11-19T09:58:55;100656.63;;;1.18;100.00
36062;BME280;22123;52.412;20.970;2023-11-19T10:01:21;100641.75;;;1.15;100.00
36062;BME280;22123;52.412;20.970;2023-11-19T10:03:48;100605.28;;;0.93;100.00
36062;BME280;22123;52.412;20.970;2023-11-19T10:06:16;100620.88;;;0.98;100.00
36062;BME280;22123;52.412;20.970;2023-11-19T10:08:43;100615.56;;;0.98;100.00
36062;BME280;22123;52.412;20.970;2023-11-19T10:11:09;100598.72;;;0.86;100.00
36062;BME280;22123;52.412;20.970;2023-11-19T10:13:35;100624.06;;;1.03;100.00
36062;BME280;22123;52.412;20.970;2023-11-19T10:16:04;100623.09;;;1.04;100.00
36062;BME280;22123;52.412;20.970;2023-11-19T10:18:30;100589.28;;;0.82;100.00
36062;BME280;22123;52.412;20.970;2023-11-19T10:20:56;100583.13;;;0.81;100.00
36062;BME280;22123;52.412;20.970;2023-11-19T10:23:22;100584.69;;;0.84;100.00
36062;BME280;22123;52.412;20.970;2023-11-19T10:25:48;100553.00;;;0.69;100.00
36062;BME280;22123;52.412;20.970;2023-11-19T10:28:16;100594.91;;;1.03;100.00
36062;BME280;22123;52.412;20.970;2023-11-19T10:30:42;100581.22;;;0.96;100.00
36062;BME280;22123;52.412;20.970;2023-11-19T10:33:09;100584.28;;;1.03;100.00
36062;BME280;22123;52.412;20.970;2023-11-19T10:35:58;100572.63;;;0.93;100.00
36062;BME280;22123;52.412;20.970;2023-11-19T10:38:25;100573.38;;;0.95;100.00
36062;BME280;22123;52.412;20.970;2023-11-19T10:40:52;100569.97;;;0.93;100.00
36062;BME280;22123;52.412;20.970;2023-11-19T10:43:19;100573.59;;;0.92;100.00
36062;BME280;22123;52.412;20.970;2023-11-19T10:45:45;100528.66;;;0.64;100.00
36062;BME280;22123;52.412;20.970;2023-11-19T10:48:11;100552.16;;;0.82;100.00
36062;BME280;22123;52.412;20.970;2023-11-19T10:50:37;100530.34;;;0.65;100.00
36062;BME280;22123;52.412;20.970;2023-11-19T10:53:05;100536.81;;;0.74;100.00
36062;BME280;22123;52.412;20.970;2023-11-19T10:55:41;100525.44;;;0.72;100.00
36062;BME280;22123;52.412;20.970;2023-11-19T10:58:08;100507.22;;;0.67;100.00
36062;BME280;22123;52.412;20.970;2023-11-19T11:00:44;100529.03;;;0.84;100.00
36062;BME280;22123;52.412;20.970;2023-11-19T11:03:21;100486.81;;;0.57;100.00
36062;BME280;22123;52.412;20.970;2023-11-19T11:05:47;100491.66;;;0.63;100.00
36062;BME280;22123;52.412;20.970;2023-11-19T11:08:14;100512.84;;;0.76;100.00
36062;BME280;22123;52.412;20.970;2023-11-19T11:10:43;100485.22;;;0.54;100.00
36062;BME280;22123;52.412;20.970;2023-11-19T11:13:10;100461.69;;;0.37;100.00
36062;BME280;22123;52.412;20.970;2023-11-19T11:15:37;100472.47;;;0.46;100.00
36062;BME280;22123;52.412;20.970;2023-11-19T11:18:03;100442.19;;;0.38;100.00
36062;BME280;22123;52.412;20.970;2023-11-19T11:20:33;100457.97;;;0.52;100.00
36062;BME280;22123;52.412;20.970;2023-11-19T11:23:41;100448.13;;;0.41;100.00
36062;BME280;22123;52.412;20.970;2023-11-19T11:37:47;100462.41;;;0.51;100.00
36062;BME280;22123;52.412;20.970;2023-11-19T11:40:15;100430.63;;;0.39;100.00
36062;BME280;22123;52.412;20.970;2023-11-19T11:42:42;100455.00;;;0.57;100.00
36062;BME280;22123;52.412;20.970;2023-11-19T11:45:12;100427.06;;;0.40;100.00
36062;BME280;22123;52.412;20.970;2023-11-19T11:50:14;100447.25;;;0.54;100.00
36062;BME280;22123;52.412;20.970;2023-11-19T11:58:17;100406.91;;;0.50;100.00
36062;BME280;22123;52.412;20.970;2023-11-19T12:00:43;100384.78;;;0.38;100.00
36062;BME280;22123;52.412;20.970;2023-11-19T12:03:09;100354.91;;;0.23;100.00
36062;BME280;22123;52.412;20.970;2023-11-19T12:05:44;100359.91;;;0.28;100.00
36062;BME280;22123;52.412;20.970;2023-11-19T12:08:12;100352.56;;;0.31;100.00
36062;BME280;22123;52.412;20.970;2023-11-19T12:10:44;100381.78;;;0.56;100.00
36062;BME280;22123;52.412;20.970;2023-11-19T12:13:10;100351.53;;;0.34;100.00
36062;BME280;22123;52.412;20.970;2023-11-19T12:18:26;100314.69;;;0.18;100.00
36062;BME280;22123;52.412;20.970;2023-11-19T12:20:53;100312.03;;;0.18;100.00
36062;BME280;22123;52.412;20.970;2023-11-19T12:23:19;100320.72;;;0.20;100.00
36062;BME280;22123;52.412;20.970;2023-11-19T12:25:45;100363.47;;;0.52;100.00
36062;BME280;22123;52.412;20.970;2023-11-19T12:28:15;100323.56;;;0.30;100.00
36062;BME280;22123;52.412;20.970;2023-11-19T12:30:41;100315.13;;;0.25;100.00
36062;BME280;22123;52.412;20.970;2023-11-19T12:33:10;100330.22;;;0.36;100.00
36062;BME280;22123;52.412;20.970;2023-11-19T12:35:46;100356.69;;;0.48;100.00
36062;BME280;22123;52.412;20.970;2023-11-19T12:38:23;100358.38;;;0.49;100.00
36062;BME280;22123;52.412;20.970;2023-11-19T12:43:30;100264.22;;;-0.05;100.00
36062;BME280;22123;52.412;20.970;2023-11-19T12:45:56;100268.34;;;-0.01;100.00
36062;BME280;22123;52.412;20.970;2023-11-19T12:48:22;100255.44;;;-0.05;100.00
36062;BME280;22123;52.412;20.970;2023-11-19T12:50:58;100324.94;;;0.36;100.00
36062;BME280;22123;52.412;20.970;2023-11-19T12:53:25;100318.56;;;0.38;100.00
36062;BME280;22123;52.412;20.970;2023-11-19T12:55:52;100296.84;;;0.33;100.00